Terminal Aerodrome Forecast
Issued by NWS Jackson, KY

Home | Current Version | Previous Version | Text Only | Print | Product List | Glossary On
Versions: 1 2 3 4 5 6 7 8 9 10 11 12 13 14 15 16 17 18 19
156
FTUS43 KJKL 211437 AAB
TAFLOZ
TAF AMD
KLOZ 211437Z 2115/2212 19005KT P6SM -SHRA SCT025 OVC040
     FM211600 20006KT 5SM SHRA VCTS OVC025CB
     FM220000 21005KT P6SM VCSH OVC080
     FM220500 27005KT P6SM VCSH BKN035
     FM220600 29005KT P6SM BKN025=

USA.gov is the U.S. government's official web portal to all federal, state and local government web resources and services.